createdAt,value
2019-03-08T00:00:16.844Z,8.73
2019-03-08T00:01:16.808Z,8.81
2019-03-08T00:02:16.746Z,8.71
2019-03-08T00:03:16.731Z,8.66
2019-03-08T00:04:16.690Z,8.61
2019-03-08T00:05:16.640Z,8.50
2019-03-08T00:06:16.618Z,8.59
2019-03-08T00:07:16.557Z,8.61
2019-03-08T00:08:16.523Z,8.58
2019-03-08T00:09:16.494Z,8.70
2019-03-08T00:10:16.453Z,8.63
2019-03-08T00:11:16.403Z,8.68
2019-03-08T00:12:16.366Z,8.79
2019-03-08T00:13:16.342Z,8.76
2019-03-08T00:14:16.308Z,8.73
2019-03-08T00:15:16.233Z,8.63
2019-03-08T00:16:16.214Z,8.61
2019-03-08T00:17:16.211Z,8.66
2019-03-08T00:18:16.120Z,8.84
2019-03-08T00:19:16.119Z,8.79
2019-03-08T00:20:16.050Z,8.79
2019-03-08T00:21:16.040Z,8.87
2019-03-08T00:22:15.989Z,8.84
2019-03-08T00:23:15.938Z,8.95
2019-03-08T00:24:15.911Z,8.92
2019-03-08T00:25:15.858Z,8.96
2019-03-08T00:26:15.821Z,8.89
2019-03-08T00:27:15.797Z,8.89
2019-03-08T00:28:15.759Z,8.81
2019-03-08T00:29:15.711Z,8.81
2019-03-08T00:30:15.681Z,8.79
2019-03-08T00:31:15.644Z,8.61
2019-03-08T00:32:15.609Z,8.59
2019-03-08T00:33:15.566Z,8.61
2019-03-08T00:34:15.501Z,8.62
2019-03-08T00:35:15.523Z,8.59
2019-03-08T00:36:15.449Z,8.70
2019-03-08T00:37:15.419Z,8.61
2019-03-08T00:38:15.350Z,8.61
2019-03-08T00:39:15.311Z,8.65
2019-03-08T00:40:15.288Z,8.63
2019-03-08T00:41:15.234Z,8.61
2019-03-08T00:42:15.191Z,8.66
2019-03-08T00:43:15.182Z,8.62
2019-03-08T00:44:15.153Z,8.55
2019-03-08T00:45:15.091Z,8.58
2019-03-08T00:46:15.066Z,8.58
2019-03-08T00:47:15.032Z,8.47
2019-03-08T00:48:14.963Z,8.53
2019-03-08T00:49:14.949Z,8.43
2019-03-08T00:50:14.901Z,8.38
2019-03-08T00:51:14.857Z,8.25
2019-03-08T00:52:14.814Z,8.22
2019-03-08T00:53:15.784Z,8.23
2019-03-08T00:54:14.726Z,8.25
2019-03-08T00:55:14.688Z,8.19
2019-03-08T00:56:14.653Z,8.28
2019-03-08T00:57:14.621Z,8.25
2019-03-08T00:58:14.586Z,8.25
2019-03-08T00:59:14.570Z,8.23
2019-03-08T01:00:14.490Z,8.26
2019-03-08T01:01:14.469Z,8.29
2019-03-08T01:02:14.420Z,8.26
2019-03-08T01:03:14.396Z,8.28
2019-03-08T01:04:14.346Z,8.20
2019-03-08T01:05:14.300Z,8.23
2019-03-08T01:06:14.259Z,8.22
2019-03-08T01:07:14.225Z,8.25
2019-03-08T01:08:14.193Z,8.28
2019-03-08T01:09:14.146Z,8.23
2019-03-08T01:10:14.122Z,8.30
2019-03-08T01:11:14.078Z,8.19
2019-03-08T01:12:14.035Z,8.19
2019-03-08T01:13:13.995Z,8.19
2019-03-08T01:14:13.955Z,8.07
2019-03-08T01:15:13.917Z,7.97
2019-03-08T01:16:13.870Z,8.05
2019-03-08T01:17:13.854Z,8.11
2019-03-08T01:18:13.810Z,8.00
2019-03-08T01:19:13.766Z,8.04
2019-03-08T01:20:13.715Z,7.90
2019-03-08T01:21:13.701Z,7.92
2019-03-08T01:22:13.671Z,8.01
2019-03-08T01:23:13.619Z,7.86
2019-03-08T01:24:13.572Z,7.77
2019-03-08T01:25:13.542Z,7.80
2019-03-08T01:26:13.479Z,7.86
2019-03-08T01:27:13.478Z,7.77
2019-03-08T01:28:13.423Z,7.79
2019-03-08T01:29:13.376Z,7.77
2019-03-08T01:30:13.312Z,7.93
2019-03-08T01:31:13.290Z,7.97
2019-03-08T01:32:13.255Z,7.97
2019-03-08T01:33:13.224Z,8.05
2019-03-08T01:34:13.175Z,8.10
2019-03-08T01:35:13.141Z,8.12
2019-03-08T01:36:13.078Z,8.29
2019-03-08T01:37:13.058Z,8.18
2019-03-08T01:38:13.004Z,8.11
2019-03-08T01:39:12.987Z,8.16
2019-03-08T01:40:12.922Z,8.15
2019-03-08T01:41:12.904Z,8.22
2019-03-08T01:42:12.864Z,8.36
2019-03-08T01:43:12.830Z,8.29
2019-03-08T01:44:12.783Z,8.20
2019-03-08T01:45:12.731Z,8.18
2019-03-08T01:46:12.714Z,8.18
2019-03-08T01:47:12.679Z,8.19
2019-03-08T01:48:12.620Z,8.20
2019-03-08T01:49:12.589Z,8.25
2019-03-08T01:50:12.531Z,8.23
2019-03-08T01:51:12.515Z,8.28
2019-03-08T01:52:12.464Z,8.38
2019-03-08T01:53:12.424Z,8.22
2019-03-08T01:54:12.390Z,8.12
2019-03-08T01:55:12.396Z,8.25
2019-03-08T01:56:12.309Z,8.25
2019-03-08T01:57:12.270Z,8.23
2019-03-08T01:58:12.231Z,8.19
2019-03-08T01:59:12.171Z,8.29
2019-03-08T02:00:12.163Z,8.20
2019-03-08T02:01:12.242Z,8.19
2019-03-08T02:02:12.076Z,8.22
2019-03-08T02:03:12.030Z,8.23
2019-03-08T02:04:12.003Z,8.25
2019-03-08T02:05:11.955Z,8.28
2019-03-08T02:06:11.901Z,8.19
2019-03-08T02:07:11.871Z,8.25
2019-03-08T02:08:11.875Z,8.37
2019-03-08T02:09:11.793Z,8.36
2019-03-08T02:10:11.757Z,8.47
2019-03-08T02:11:11.796Z,8.43
2019-03-08T02:12:11.672Z,8.43
2019-03-08T02:13:11.628Z,8.55
2019-03-08T02:14:11.613Z,8.59
2019-03-08T02:15:11.556Z,8.65
2019-03-08T02:16:11.542Z,8.55
2019-03-08T02:17:11.494Z,8.65
2019-03-08T02:18:11.455Z,8.66
2019-03-08T02:19:11.394Z,8.87
2019-03-08T02:20:11.390Z,8.86
2019-03-08T02:21:11.340Z,8.94
2019-03-08T02:22:11.283Z,8.91
2019-03-08T02:23:11.272Z,8.92
2019-03-08T02:24:11.193Z,8.94
2019-03-08T02:25:11.159Z,8.95
2019-03-08T02:26:11.131Z,8.99
2019-03-08T02:27:11.094Z,8.98
2019-03-08T02:28:11.071Z,8.95
2019-03-08T02:29:11.003Z,8.86
2019-03-08T02:30:11.004Z,8.89
2019-03-08T02:31:11.003Z,8.98
2019-03-08T02:32:10.920Z,8.98
2019-03-08T02:33:10.887Z,8.98
2019-03-08T02:34:10.842Z,8.96
2019-03-08T02:35:10.767Z,8.89
2019-03-08T02:36:10.736Z,9.10
2019-03-08T02:37:10.708Z,9.02
2019-03-08T02:38:10.706Z,9.10
2019-03-08T02:39:10.630Z,9.10
2019-03-08T02:40:10.589Z,9.02
2019-03-08T02:41:10.534Z,9.08
2019-03-08T02:42:10.540Z,9.11
2019-03-08T02:43:10.467Z,9.01
2019-03-08T02:44:10.421Z,8.96
2019-03-08T02:45:10.378Z,9.04
2019-03-08T02:46:10.341Z,9.08
2019-03-08T02:47:10.319Z,9.10
2019-03-08T02:48:10.258Z,9.10
2019-03-08T02:49:10.249Z,9.15
2019-03-08T02:50:10.298Z,9.11
2019-03-08T02:51:10.150Z,8.98
2019-03-08T02:52:10.117Z,9.01
2019-03-08T02:53:10.074Z,9.05
2019-03-08T02:54:10.039Z,9.11
2019-03-08T02:55:09.992Z,9.05
2019-03-08T02:56:09.959Z,9.17
2019-03-08T02:57:09.920Z,9.17
2019-03-08T02:58:09.902Z,9.14
2019-03-08T02:59:09.846Z,9.13
2019-03-08T03:00:09.811Z,9.13
2019-03-08T03:01:09.767Z,9.11
2019-03-08T03:02:09.727Z,9.02
2019-03-08T03:03:09.742Z,8.99
2019-03-08T03:04:09.667Z,9.05
2019-03-08T03:05:09.627Z,9.08
2019-03-08T03:06:09.586Z,8.94
2019-03-08T03:07:09.541Z,9.05
2019-03-08T03:08:09.509Z,8.87
2019-03-08T03:09:09.475Z,8.92
2019-03-08T03:10:09.440Z,8.89
2019-03-08T03:11:09.406Z,8.95
2019-03-08T03:12:09.369Z,8.87
2019-03-08T03:13:09.294Z,8.96
2019-03-08T03:14:09.270Z,8.95
2019-03-08T03:15:09.222Z,8.94
2019-03-08T03:16:09.244Z,8.95
2019-03-08T03:17:09.202Z,8.89
2019-03-08T03:18:09.110Z,8.91
2019-03-08T03:19:09.066Z,8.89
2019-03-08T03:20:09.050Z,8.94
2019-03-08T03:21:08.991Z,8.95
2019-03-08T03:22:08.934Z,8.92
2019-03-08T03:23:08.912Z,8.83
2019-03-08T03:24:08.910Z,8.94
2019-03-08T03:25:08.841Z,8.92
2019-03-08T03:26:08.789Z,8.74
2019-03-08T03:27:08.767Z,8.86
2019-03-08T03:28:08.727Z,8.89
2019-03-08T03:29:08.729Z,8.89
2019-03-08T03:30:08.642Z,8.91
2019-03-08T03:31:08.619Z,8.71
2019-03-08T03:32:08.601Z,8.89
2019-03-08T03:33:08.527Z,8.89
2019-03-08T03:34:08.486Z,8.94
2019-03-08T03:35:08.453Z,8.95
2019-03-08T03:36:08.399Z,8.91
2019-03-08T03:37:08.380Z,8.96
2019-03-08T03:38:08.337Z,8.91
2019-03-08T03:39:08.294Z,8.99
2019-03-08T03:40:08.246Z,8.95
2019-03-08T03:41:08.228Z,9.11
2019-03-08T03:42:08.177Z,9.20
2019-03-08T03:43:08.174Z,9.17
2019-03-08T03:44:08.096Z,9.17
2019-03-08T03:45:08.069Z,9.14
2019-03-08T03:46:08.028Z,9.17
2019-03-08T03:47:07.981Z,9.21
2019-03-08T03:48:07.929Z,9.17
2019-03-08T03:49:07.915Z,9.04
2019-03-08T03:50:07.860Z,9.10
2019-03-08T03:51:07.878Z,8.96
2019-03-08T03:52:07.806Z,9.04
2019-03-08T03:53:07.760Z,8.95
2019-03-08T03:54:08.625Z,8.96
2019-03-08T03:55:07.676Z,8.99
2019-03-08T03:56:07.673Z,8.99
2019-03-08T03:57:07.598Z,8.94
2019-03-08T03:58:07.557Z,8.89
2019-03-08T03:59:07.526Z,8.87
2019-03-08T04:00:07.474Z,8.91
2019-03-08T04:01:07.444Z,8.80
2019-03-08T04:02:07.407Z,8.87
2019-03-08T04:03:07.390Z,8.94
2019-03-08T04:04:07.346Z,8.98
2019-03-08T04:05:07.304Z,8.94
2019-03-08T04:06:07.233Z,8.98
2019-03-08T04:07:07.234Z,8.92
2019-03-08T04:08:07.191Z,8.96
2019-03-08T04:09:07.151Z,8.92
2019-03-08T04:10:07.111Z,8.92
2019-03-08T04:11:07.070Z,9.01
2019-03-08T04:12:07.025Z,8.92
2019-03-08T04:13:07.009Z,8.92
2019-03-08T04:14:06.963Z,8.91
2019-03-08T04:15:06.888Z,8.77
2019-03-08T04:16:06.889Z,8.83
2019-03-08T04:17:06.850Z,8.87
2019-03-08T04:18:06.784Z,8.92
2019-03-08T04:19:06.745Z,8.98
2019-03-08T04:20:06.698Z,8.96
2019-03-08T04:21:06.670Z,8.91
2019-03-08T04:22:06.631Z,8.83
2019-03-08T04:23:06.609Z,8.91
2019-03-08T04:24:06.554Z,8.84
2019-03-08T04:25:06.524Z,8.92
2019-03-08T04:26:06.476Z,8.89
2019-03-08T04:27:06.448Z,8.80
2019-03-08T04:28:06.448Z,8.79
2019-03-08T04:29:06.352Z,8.86
2019-03-08T04:30:06.333Z,8.84
2019-03-08T04:31:06.316Z,8.79
2019-03-08T04:32:06.347Z,8.74
2019-03-08T04:33:06.207Z,8.86
2019-03-08T04:34:06.169Z,8.91
2019-03-08T04:35:06.116Z,8.87
2019-03-08T04:36:06.075Z,8.94
2019-03-08T04:37:06.025Z,8.79
2019-03-08T04:38:06.011Z,8.87
2019-03-08T04:39:05.961Z,8.79
2019-03-08T04:40:05.930Z,8.83
2019-03-08T04:41:05.949Z,8.79
2019-03-08T04:42:05.840Z,8.83
2019-03-08T04:43:05.793Z,8.81
2019-03-08T04:44:05.771Z,8.68
2019-03-08T04:45:05.715Z,8.74
2019-03-08T04:46:05.708Z,8.73
2019-03-08T04:47:05.642Z,8.83
2019-03-08T04:48:05.622Z,8.84
2019-03-08T04:49:05.584Z,8.76
2019-03-08T04:50:05.530Z,8.77
2019-03-08T04:51:05.482Z,8.58
2019-03-08T04:52:05.490Z,8.55
2019-03-08T04:53:05.420Z,8.59
2019-03-08T04:54:05.377Z,8.61
2019-03-08T04:55:05.348Z,8.68
2019-03-08T04:56:05.339Z,8.59
2019-03-08T04:57:05.274Z,8.59
2019-03-08T04:58:05.212Z,8.58
2019-03-08T04:59:05.178Z,8.63
2019-03-08T05:00:05.137Z,8.61
2019-03-08T05:01:05.122Z,8.58
2019-03-08T05:02:05.099Z,8.62
2019-03-08T05:03:05.032Z,8.62
2019-03-08T05:04:04.987Z,8.76
2019-03-08T05:05:04.968Z,8.62
2019-03-08T05:06:04.902Z,8.59
2019-03-08T05:07:04.880Z,8.62
2019-03-08T05:08:04.849Z,8.55
2019-03-08T05:09:04.806Z,8.55
2019-03-08T05:10:04.762Z,8.44
2019-03-08T05:11:04.720Z,8.44
2019-03-08T05:12:04.689Z,8.29
2019-03-08T05:13:04.626Z,8.25
2019-03-08T05:14:04.606Z,8.37
2019-03-08T05:15:04.578Z,8.44
2019-03-08T05:16:04.518Z,8.36
2019-03-08T05:17:04.510Z,8.33
2019-03-08T05:18:04.437Z,8.23
2019-03-08T05:19:04.396Z,8.26
2019-03-08T05:20:04.361Z,8.26
2019-03-08T05:21:04.310Z,8.23
2019-03-08T05:22:04.278Z,8.40
2019-03-08T05:23:04.234Z,8.45
2019-03-08T05:24:04.192Z,8.55
2019-03-08T05:25:04.164Z,8.58
2019-03-08T05:26:04.166Z,8.58
2019-03-08T05:27:04.089Z,8.45
2019-03-08T05:28:04.918Z,8.38
2019-03-08T05:29:04.016Z,8.43
2019-03-08T05:30:04.017Z,8.37
2019-03-08T05:31:03.941Z,8.52
2019-03-08T05:32:03.928Z,8.41
2019-03-08T05:33:03.861Z,8.45
2019-03-08T05:34:03.802Z,8.45
2019-03-08T05:35:03.759Z,8.43
2019-03-08T05:36:03.767Z,8.44
2019-03-08T05:37:03.687Z,8.53
2019-03-08T05:38:03.662Z,8.61
2019-03-08T05:39:03.641Z,8.52
2019-03-08T05:40:03.563Z,8.43
2019-03-08T05:41:03.536Z,8.53
2019-03-08T05:42:03.498Z,8.52
2019-03-08T05:43:04.066Z,8.45
2019-03-08T05:44:03.406Z,8.44
2019-03-08T05:45:03.388Z,8.44
2019-03-08T05:46:03.359Z,8.48
2019-03-08T05:47:03.296Z,8.40
2019-03-08T05:48:03.271Z,8.36
2019-03-08T05:49:03.233Z,8.43
2019-03-08T05:50:03.173Z,8.44
2019-03-08T05:51:03.156Z,8.45
2019-03-08T05:52:03.107Z,8.61
2019-03-08T05:53:03.089Z,8.58
2019-03-08T05:54:03.023Z,8.59
2019-03-08T05:55:03.015Z,8.58
2019-03-08T05:56:02.952Z,8.62
2019-03-08T05:57:02.928Z,8.59
2019-03-08T05:58:02.902Z,8.74
2019-03-08T05:59:02.838Z,8.65
2019-03-08T06:00:02.797Z,8.74
2019-03-08T06:01:02.765Z,8.70
2019-03-08T06:02:02.713Z,8.68
2019-03-08T06:03:02.686Z,8.71
2019-03-08T06:04:02.683Z,8.73
2019-03-08T06:05:02.585Z,8.66
2019-03-08T06:06:02.556Z,8.65
2019-03-08T06:07:02.514Z,8.63
2019-03-08T06:08:02.476Z,8.74
2019-03-08T06:09:02.458Z,8.70
2019-03-08T06:10:03.171Z,8.66
2019-03-08T06:11:02.354Z,8.83
2019-03-08T06:12:02.320Z,8.77
2019-03-08T06:13:02.279Z,8.81
2019-03-08T06:14:02.237Z,8.81
2019-03-08T06:15:02.204Z,8.83
2019-03-08T06:16:02.237Z,8.86
2019-03-08T06:17:02.143Z,8.87
2019-03-08T06:18:02.102Z,8.80
2019-03-08T06:19:02.060Z,8.81
2019-03-08T06:20:02.032Z,8.86
2019-03-08T06:21:01.968Z,8.83
2019-03-08T06:22:01.925Z,8.81
2019-03-08T06:23:01.908Z,8.81
2019-03-08T06:24:01.881Z,8.76
2019-03-08T06:25:01.827Z,8.76
2019-03-08T06:26:01.820Z,8.84
2019-03-08T06:27:01.743Z,8.83
2019-03-08T06:28:01.708Z,8.86
2019-03-08T06:29:01.663Z,8.84
2019-03-08T06:30:01.631Z,8.89
2019-03-08T06:31:01.565Z,8.83
2019-03-08T06:32:01.558Z,8.84
2019-03-08T06:33:01.512Z,8.89
2019-03-08T06:34:01.463Z,8.86
2019-03-08T06:35:01.420Z,8.87
2019-03-08T06:36:01.395Z,8.83
2019-03-08T06:37:01.457Z,8.81
2019-03-08T06:38:01.291Z,8.83
2019-03-08T06:39:01.268Z,8.89
2019-03-08T06:40:01.230Z,8.95
2019-03-08T06:41:01.205Z,8.89
2019-03-08T06:42:01.142Z,9.05
2019-03-08T06:43:01.099Z,9.14
2019-03-08T06:44:01.092Z,9.13
2019-03-08T06:45:01.073Z,9.21
2019-03-08T06:46:00.982Z,9.18
2019-03-08T06:47:00.938Z,9.20
2019-03-08T06:48:00.924Z,9.18
2019-03-08T06:49:00.857Z,9.14
2019-03-08T06:50:00.827Z,9.17
2019-03-08T06:51:00.782Z,9.17
2019-03-08T06:52:00.978Z,9.23
2019-03-08T06:53:00.703Z,9.18
2019-03-08T06:54:00.682Z,9.23
2019-03-08T06:55:00.651Z,9.31
2019-03-08T06:56:00.620Z,9.36
2019-03-08T06:57:00.567Z,9.36
2019-03-08T06:58:00.534Z,9.38
2019-03-08T06:59:00.507Z,9.50
2019-03-08T07:00:00.444Z,9.50
2019-03-08T07:01:00.403Z,9.53
2019-03-08T07:02:00.368Z,9.58
2019-03-08T07:03:00.350Z,9.57
2019-03-08T07:04:00.293Z,9.76
2019-03-08T07:05:00.296Z,9.94
2019-03-08T07:06:00.208Z,9.83
2019-03-08T07:07:00.191Z,9.86
2019-03-08T07:08:00.144Z,9.79
2019-03-08T07:09:00.109Z,9.90
2019-03-08T07:10:00.057Z,9.79
2019-03-08T07:11:00.042Z,10.04
2019-03-08T07:11:59.977Z,10.14
2019-03-08T07:13:03.171Z,10.11
2019-03-08T07:13:59.924Z,10.25
2019-03-08T07:14:59.871Z,10.25
2019-03-08T07:15:59.847Z,10.14
2019-03-08T07:16:59.798Z,10.55
2019-03-08T07:17:59.851Z,10.67
2019-03-08T07:18:59.712Z,10.44
2019-03-08T07:19:59.802Z,10.22
2019-03-08T07:20:59.677Z,10.42
2019-03-08T07:21:59.658Z,10.40
2019-03-08T07:22:59.579Z,10.23
2019-03-08T07:23:59.559Z,10.17
2019-03-08T07:24:59.534Z,10.11
2019-03-08T07:25:59.473Z,10.04
2019-03-08T07:26:59.439Z,10.09
2019-03-08T07:27:59.400Z,9.97
2019-03-08T07:28:59.374Z,9.91
2019-03-08T07:29:59.323Z,9.72
2019-03-08T07:30:59.282Z,9.86
2019-03-08T07:31:59.330Z,9.79
2019-03-08T07:32:59.249Z,9.81
2019-03-08T07:33:59.183Z,9.83
2019-03-08T07:34:59.141Z,9.66
2019-03-08T07:35:59.093Z,9.58
2019-03-08T07:36:59.088Z,9.64
2019-03-08T07:37:59.027Z,9.60
2019-03-08T07:38:59.018Z,9.61
2019-03-08T07:39:58.959Z,9.69
2019-03-08T07:40:58.972Z,9.57
2019-03-08T07:41:58.878Z,9.58
2019-03-08T07:42:58.858Z,9.54
2019-03-08T07:43:58.809Z,9.58
2019-03-08T07:44:58.790Z,9.58
2019-03-08T07:45:58.784Z,9.57
2019-03-08T07:46:58.694Z,9.64
2019-03-08T07:47:58.680Z,9.71
2019-03-08T07:48:58.631Z,9.60
2019-03-08T07:49:58.588Z,9.56
2019-03-08T07:50:58.566Z,9.57
2019-03-08T07:51:58.513Z,9.57
2019-03-08T07:52:58.473Z,9.57
2019-03-08T07:53:58.429Z,9.56
2019-03-08T07:54:58.403Z,9.50
2019-03-08T07:55:58.371Z,9.53
2019-03-08T07:56:58.333Z,9.61
2019-03-08T07:57:58.282Z,9.57
2019-03-08T07:58:58.250Z,9.71
2019-03-08T07:59:58.211Z,9.90
2019-03-08T08:00:58.169Z,9.84
2019-03-08T08:01:58.122Z,9.86
2019-03-08T08:03:03.605Z,9.90
2019-03-08T08:03:58.441Z,10.11
2019-03-08T08:04:58.025Z,10.05
2019-03-08T08:05:58.567Z,9.86
2019-03-08T08:06:57.950Z,9.87
2019-03-08T08:07:57.918Z,10.07
2019-03-08T08:08:57.935Z,9.91
2019-03-08T08:09:57.858Z,9.94
2019-03-08T08:10:57.846Z,9.90
2019-03-08T08:11:57.766Z,9.78
2019-03-08T08:12:57.722Z,9.74
2019-03-08T08:13:57.735Z,9.86
2019-03-08T08:14:57.695Z,9.83
2019-03-08T08:15:57.624Z,9.90
2019-03-08T08:16:57.588Z,9.91
2019-03-08T08:17:57.565Z,10.01
2019-03-08T08:18:57.502Z,9.93
2019-03-08T08:19:57.467Z,10.05
2019-03-08T08:20:57.544Z,10.11
2019-03-08T08:21:57.440Z,10.11
2019-03-08T08:22:57.356Z,10.07
2019-03-08T08:23:57.333Z,10.01
2019-03-08T08:24:57.293Z,10.05
2019-03-08T08:25:57.256Z,10.07
2019-03-08T08:26:57.237Z,10.07
2019-03-08T08:27:57.191Z,10.12
2019-03-08T08:28:57.132Z,10.01
2019-03-08T08:29:57.131Z,10.09
2019-03-08T08:30:57.049Z,9.90
2019-03-08T08:31:57.048Z,9.91
2019-03-08T08:32:56.980Z,10.05
2019-03-08T08:33:56.946Z,9.94
2019-03-08T08:34:56.914Z,9.97
2019-03-08T08:35:56.905Z,9.97
2019-03-08T08:36:56.852Z,9.99
2019-03-08T08:37:56.797Z,10.02
2019-03-08T08:38:56.774Z,10.08
2019-03-08T08:39:56.721Z,10.15
2019-03-08T08:40:56.684Z,10.09
2019-03-08T08:41:56.650Z,9.97
2019-03-08T08:42:56.627Z,10.01
2019-03-08T08:43:56.640Z,10.05
2019-03-08T08:44:56.565Z,9.86
2019-03-08T08:45:56.509Z,9.93
2019-03-08T08:46:56.476Z,9.97
2019-03-08T08:47:56.432Z,9.96
2019-03-08T08:48:56.430Z,9.96
2019-03-08T08:49:56.349Z,9.84
2019-03-08T08:50:56.329Z,9.83
2019-03-08T08:51:56.269Z,9.72
2019-03-08T08:52:56.243Z,9.66
2019-03-08T08:53:56.196Z,9.69
2019-03-08T08:54:56.171Z,9.69
2019-03-08T08:55:56.130Z,9.71
2019-03-08T08:56:56.114Z,9.68
2019-03-08T08:57:56.054Z,9.58
2019-03-08T08:58:56.016Z,9.69
2019-03-08T08:59:57.073Z,9.74
2019-03-08T09:00:55.941Z,9.56
2019-03-08T09:01:55.906Z,9.69
2019-03-08T09:02:55.859Z,9.69
2019-03-08T09:03:55.849Z,9.75
2019-03-08T09:04:55.809Z,9.71
2019-03-08T09:05:56.449Z,9.60
2019-03-08T09:06:55.731Z,9.69
2019-03-08T09:07:55.678Z,9.81
2019-03-08T09:08:55.644Z,9.81
2019-03-08T09:09:55.618Z,9.84
2019-03-08T09:10:55.559Z,9.84
2019-03-08T09:11:55.559Z,9.97
2019-03-08T09:12:55.488Z,9.93
2019-03-08T09:13:55.456Z,9.99
2019-03-08T09:14:55.427Z,10.11
2019-03-08T09:15:55.377Z,10.08
2019-03-08T09:16:55.324Z,10.27
2019-03-08T09:17:55.299Z,10.36
2019-03-08T09:18:55.345Z,10.44
2019-03-08T09:19:55.225Z,10.51
2019-03-08T09:20:55.208Z,10.44
2019-03-08T09:21:55.174Z,10.61
2019-03-08T09:22:55.099Z,10.70
2019-03-08T09:23:55.092Z,10.66
2019-03-08T09:24:55.035Z,10.67
2019-03-08T09:25:55.019Z,10.79
2019-03-08T09:26:54.975Z,10.86
2019-03-08T09:27:54.930Z,10.88
2019-03-08T09:28:54.886Z,10.89
2019-03-08T09:29:54.839Z,11.19
2019-03-08T09:30:54.818Z,11.32
2019-03-08T09:31:54.824Z,11.40
2019-03-08T09:32:59.223Z,11.44
2019-03-08T09:33:54.696Z,11.39
2019-03-08T09:34:54.687Z,11.69
2019-03-08T09:35:54.625Z,11.47
2019-03-08T09:36:54.610Z,11.57
2019-03-08T09:37:54.587Z,11.57
2019-03-08T09:38:54.523Z,11.55
2019-03-08T09:39:54.517Z,11.54
2019-03-08T09:40:54.459Z,11.39
2019-03-08T09:41:54.434Z,11.28
2019-03-08T09:42:54.398Z,11.39
2019-03-08T09:43:54.377Z,11.40
2019-03-08T09:44:54.301Z,11.75
2019-03-08T09:45:54.287Z,12.20
2019-03-08T09:46:54.236Z,12.67
2019-03-08T09:47:54.203Z,12.95
2019-03-08T09:48:54.166Z,12.89
2019-03-08T09:49:54.127Z,12.86
2019-03-08T09:50:54.140Z,13.05
2019-03-08T09:51:54.124Z,13.49
2019-03-08T09:52:54.039Z,13.54
2019-03-08T09:53:54.013Z,13.29
2019-03-08T09:54:53.962Z,13.52
2019-03-08T09:55:53.957Z,12.87
2019-03-08T09:56:53.894Z,13.03
2019-03-08T09:57:53.875Z,13.38
2019-03-08T09:58:53.824Z,13.44
2019-03-08T09:59:53.800Z,13.11
2019-03-08T10:00:53.782Z,12.53
2019-03-08T10:01:53.736Z,12.31
2019-03-08T10:02:53.696Z,12.10
2019-03-08T10:03:53.678Z,11.64
2019-03-08T10:04:53.652Z,11.54
2019-03-08T10:05:53.623Z,11.29
2019-03-08T10:06:53.579Z,11.19
2019-03-08T10:07:53.539Z,11.14
2019-03-08T10:08:53.521Z,11.10
2019-03-08T10:09:53.477Z,10.88
2019-03-08T10:10:53.449Z,10.99
2019-03-08T10:11:53.399Z,10.96
2019-03-08T10:12:53.379Z,10.84
2019-03-08T10:13:53.318Z,10.96
2019-03-08T10:14:53.318Z,10.70
2019-03-08T10:15:53.266Z,10.82
2019-03-08T10:16:53.247Z,10.78
2019-03-08T10:17:53.193Z,10.81
2019-03-08T10:18:53.167Z,10.92
2019-03-08T10:19:53.132Z,11.06
2019-03-08T10:20:53.089Z,10.88
2019-03-08T10:21:53.071Z,10.97
2019-03-08T10:22:53.013Z,11.21
2019-03-08T10:23:52.996Z,11.40
2019-03-08T10:24:52.970Z,11.43
2019-03-08T10:25:52.914Z,11.55
2019-03-08T10:26:52.885Z,11.47
2019-03-08T10:27:52.851Z,11.62
2019-03-08T10:28:52.812Z,11.91
2019-03-08T10:29:52.769Z,12.05
2019-03-08T10:30:52.764Z,12.01
2019-03-08T10:31:54.206Z,12.14
2019-03-08T10:32:52.665Z,11.69
2019-03-08T10:33:52.646Z,11.58
2019-03-08T10:34:52.618Z,11.55
2019-03-08T10:35:52.578Z,11.60
2019-03-08T10:36:52.542Z,11.72
2019-03-08T10:37:52.504Z,12.02
2019-03-08T10:38:52.472Z,12.05
2019-03-08T10:39:52.415Z,11.88
2019-03-08T10:40:52.419Z,11.88
2019-03-08T10:41:52.354Z,11.65
2019-03-08T10:42:52.365Z,12.12
2019-03-08T10:43:52.285Z,12.04
2019-03-08T10:44:52.288Z,12.39
2019-03-08T10:45:52.234Z,12.47
2019-03-08T10:46:52.192Z,12.35
2019-03-08T10:47:56.008Z,12.89
2019-03-08T10:48:52.123Z,13.14
2019-03-08T10:49:55.063Z,13.17
2019-03-08T10:50:52.046Z,12.64
2019-03-08T10:51:52.025Z,12.19
2019-03-08T10:52:51.995Z,12.23
2019-03-08T10:54:00.245Z,12.41
2019-03-08T10:54:51.898Z,12.31
2019-03-08T10:55:51.875Z,12.37
2019-03-08T10:56:51.845Z,12.41
2019-03-08T10:57:51.826Z,12.78
2019-03-08T10:58:51.787Z,13.12
2019-03-08T10:59:51.741Z,12.97
2019-03-08T11:00:51.717Z,12.52
2019-03-08T11:01:51.680Z,12.41
2019-03-08T11:02:51.644Z,12.39
2019-03-08T11:03:51.604Z,12.38
2019-03-08T11:04:51.577Z,12.32
2019-03-08T11:05:51.550Z,12.10
2019-03-08T11:06:51.549Z,11.91
2019-03-08T11:07:51.484Z,11.78
2019-03-08T11:08:51.445Z,11.55
2019-03-08T11:09:51.409Z,11.29
2019-03-08T11:10:51.359Z,10.96
2019-03-08T11:11:51.351Z,10.42
2019-03-08T11:12:51.309Z,10.09
2019-03-08T11:13:51.271Z,9.87
2019-03-08T11:14:51.234Z,9.47
2019-03-08T11:15:51.195Z,9.17
2019-03-08T11:16:51.162Z,8.81
2019-03-08T11:17:51.199Z,8.76
2019-03-08T11:18:51.144Z,8.52
2019-03-08T11:19:51.081Z,8.29
2019-03-08T11:20:51.025Z,8.15
2019-03-08T11:21:50.999Z,8.08
2019-03-08T11:22:50.980Z,8.05
2019-03-08T11:23:50.917Z,8.01
2019-03-08T11:24:50.895Z,8.04
2019-03-08T11:25:50.848Z,8.22
2019-03-08T11:26:50.848Z,8.08
2019-03-08T11:27:50.796Z,7.92
2019-03-08T11:28:50.771Z,8.07
2019-03-08T11:29:50.828Z,7.98
2019-03-08T11:30:54.010Z,8.01
2019-03-08T11:31:50.656Z,7.97
2019-03-08T11:32:50.601Z,8.05
2019-03-08T11:33:50.573Z,8.00
2019-03-08T11:34:52.322Z,8.12
2019-03-08T11:35:50.485Z,8.23
2019-03-08T11:36:50.518Z,8.36
2019-03-08T11:37:51.726Z,8.40
2019-03-08T11:38:50.414Z,8.55
2019-03-08T11:39:50.327Z,8.61
2019-03-08T11:40:50.329Z,8.71
2019-03-08T11:41:50.255Z,8.76
2019-03-08T11:42:50.215Z,8.91
2019-03-08T11:43:50.210Z,9.13
2019-03-08T11:44:50.152Z,9.32
2019-03-08T11:45:50.119Z,9.54
2019-03-08T11:46:50.073Z,9.60
2019-03-08T11:47:50.042Z,9.60
2019-03-08T11:48:50.009Z,9.83
2019-03-08T11:49:49.962Z,9.74
2019-03-08T11:50:49.919Z,9.97
2019-03-08T11:51:49.882Z,10.22
2019-03-08T11:52:49.857Z,10.40
2019-03-08T11:53:56.154Z,10.32
2019-03-08T11:54:49.779Z,9.94
2019-03-08T11:55:49.729Z,10.08
2019-03-08T11:56:56.100Z,9.89
2019-03-08T11:57:49.676Z,9.93
2019-03-08T11:58:49.661Z,9.96
2019-03-08T11:59:49.680Z,10.09
2019-03-08T12:00:49.555Z,10.05
2019-03-08T12:01:49.527Z,9.66
2019-03-08T12:02:49.476Z,9.78
2019-03-08T12:03:49.457Z,9.90
2019-03-08T12:04:49.440Z,9.93
2019-03-08T12:05:49.986Z,9.87
2019-03-08T12:06:49.388Z,9.71
2019-03-08T12:07:49.310Z,9.78
2019-03-08T12:08:49.322Z,9.71
2019-03-08T12:09:49.232Z,9.68
2019-03-08T12:10:49.214Z,9.56
2019-03-08T12:11:49.183Z,9.54
2019-03-08T12:12:49.119Z,9.66
2019-03-08T12:13:49.091Z,9.76
2019-03-08T12:14:49.053Z,9.96
2019-03-08T12:15:49.015Z,10.01
2019-03-08T12:16:49.036Z,9.97
2019-03-08T12:17:48.929Z,9.94
2019-03-08T12:18:48.917Z,9.76
2019-03-08T12:19:48.881Z,9.83
2019-03-08T12:20:48.878Z,9.93
2019-03-08T12:21:48.818Z,9.89
2019-03-08T12:22:48.754Z,9.86
2019-03-08T12:23:48.728Z,9.71
2019-03-08T12:24:48.687Z,9.60
2019-03-08T12:25:48.649Z,9.68
2019-03-08T12:26:48.628Z,9.79
2019-03-08T12:27:48.566Z,9.69
2019-03-08T12:28:48.572Z,9.61
2019-03-08T12:29:48.492Z,9.71
2019-03-08T12:30:48.475Z,9.42
2019-03-08T12:31:48.462Z,9.61
2019-03-08T12:32:48.396Z,9.58
2019-03-08T12:33:48.356Z,9.60
2019-03-08T12:34:48.358Z,9.48
2019-03-08T12:35:48.285Z,9.46
2019-03-08T12:36:48.252Z,9.69
2019-03-08T12:37:48.216Z,9.78
2019-03-08T12:38:48.185Z,9.90
2019-03-08T12:39:48.217Z,9.86
2019-03-08T12:40:48.140Z,9.99
2019-03-08T12:41:48.070Z,10.09
2019-03-08T12:42:48.036Z,10.08
2019-03-08T12:43:48.003Z,9.91
2019-03-08T12:44:47.987Z,10.11
2019-03-08T12:45:47.924Z,10.53
2019-03-08T12:46:47.930Z,10.81
2019-03-08T12:47:47.855Z,10.76
2019-03-08T12:48:47.858Z,10.82
2019-03-08T12:49:47.787Z,10.91
2019-03-08T12:50:47.755Z,10.89
2019-03-08T12:51:47.716Z,10.78
2019-03-08T12:52:47.676Z,10.79
2019-03-08T12:53:47.641Z,10.76
2019-03-08T12:54:47.607Z,10.59
2019-03-08T12:55:47.559Z,10.38
2019-03-08T12:56:47.526Z,10.33
2019-03-08T12:57:47.509Z,10.45
2019-03-08T12:58:47.473Z,10.38
2019-03-08T12:59:47.434Z,10.25
2019-03-08T13:00:47.402Z,10.09
2019-03-08T13:01:47.370Z,10.08
2019-03-08T13:02:47.347Z,10.11
2019-03-08T13:03:47.793Z,10.11
2019-03-08T13:04:47.250Z,10.01
2019-03-08T13:05:47.217Z,10.09
2019-03-08T13:06:47.198Z,10.12
2019-03-08T13:07:47.167Z,10.14
2019-03-08T13:08:47.127Z,10.09
2019-03-08T13:09:47.071Z,9.99
2019-03-08T13:10:47.040Z,10.09
2019-03-08T13:11:46.990Z,10.30